Pulleys Mill, Illinois
Current Conditions -  °F | °C
As of 11:51 AM on Wednesday 28 Jan 2015 (Local Time) from KMWA Reporting Station
Clear Clear  
Wind Chill:   Ceiling: Unl
Heat Index:   Visibility: 10mi
Dew Point: -1°   Wind: 12mph
Humidity: 65%   Direction: 160°SSE
Pressure: 30.27"   Gusts: NA
Location:  37.565°N, 88.982°W
Report Text: KMWA 281751Z 16010KT 10SM SKC 05/M01 A3027
Loading
Personal Weather Stations






























Interactive Weather Map New forecast layout! Learn more

10-Day Weather Forecast

Advertisements
Track Severe Weather on mobile